sensor_id;sensor_type;location;lat;lon;timestamp;temperature;humidity
4183;DHT22;2105;52.300;9.182;2023-04-01T00:02:24;9.70;99.90
4183;DHT22;2105;52.300;9.182;2023-04-01T00:04:51;9.70;99.90
4183;DHT22;2105;52.300;9.182;2023-04-01T00:07:18;9.70;99.90
4183;DHT22;2105;52.300;9.182;2023-04-01T00:09:44;9.70;99.90
4183;DHT22;2105;52.300;9.182;2023-04-01T00:12:12;9.70;99.90
4183;DHT22;2105;52.300;9.182;2023-04-01T00:14:40;9.60;99.90
4183;DHT22;2105;52.300;9.182;2023-04-01T00:17:06;9.60;99.90
4183;DHT22;2105;52.300;9.182;2023-04-01T00:19:33;9.60;99.90
4183;DHT22;2105;52.300;9.182;2023-04-01T00:22:00;9.60;99.90
4183;DHT22;2105;52.300;9.182;2023-04-01T00:24:27;9.60;99.90
4183;DHT22;2105;52.300;9.182;2023-04-01T00:26:54;9.60;99.90
4183;DHT22;2105;52.300;9.182;2023-04-01T00:29:22;9.60;99.90
4183;DHT22;2105;52.300;9.182;2023-04-01T00:31:55;9.60;99.90
4183;DHT22;2105;52.300;9.182;2023-04-01T00:34:21;9.60;99.90
4183;DHT22;2105;52.300;9.182;2023-04-01T00:36:49;9.60;99.90
4183;DHT22;2105;52.300;9.182;2023-04-01T00:39:15;9.60;99.90
4183;DHT22;2105;52.300;9.182;2023-04-01T00:41:42;9.60;99.90
4183;DHT22;2105;52.300;9.182;2023-04-01T00:44:17;9.60;99.90
4183;DHT22;2105;52.300;9.182;2023-04-01T00:46:45;9.70;99.90
4183;DHT22;2105;52.300;9.182;2023-04-01T00:49:13;9.60;99.90
4183;DHT22;2105;52.300;9.182;2023-04-01T00:51:41;9.60;99.90
4183;DHT22;2105;52.300;9.182;2023-04-01T00:54:09;9.70;99.90
4183;DHT22;2105;52.300;9.182;2023-04-01T00:56:38;9.70;99.90
4183;DHT22;2105;52.300;9.182;2023-04-01T00:59:09;9.60;99.90
4183;DHT22;2105;52.300;9.182;2023-04-01T01:01:37;9.60;99.90
4183;DHT22;2105;52.300;9.182;2023-04-01T01:04:05;9.60;99.90
4183;DHT22;2105;52.300;9.182;2023-04-01T01:06:43;9.60;99.90
4183;DHT22;2105;52.300;9.182;2023-04-01T01:09:21;9.60;99.90
4183;DHT22;2105;52.300;9.182;2023-04-01T01:11:54;9.60;99.90
4183;DHT22;2105;52.300;9.182;2023-04-01T01:14:35;9.60;99.90
4183;DHT22;2105;52.300;9.182;2023-04-01T01:17:10;9.60;99.90
4183;DHT22;2105;52.300;9.182;2023-04-01T01:20:00;9.60;99.90
4183;DHT22;2105;52.300;9.182;2023-04-01T01:22:52;9.60;99.90
4183;DHT22;2105;52.300;9.182;2023-04-01T01:25:32;9.60;99.90
4183;DHT22;2105;52.300;9.182;2023-04-01T01:28:16;9.60;99.90
4183;DHT22;2105;52.300;9.182;2023-04-01T01:30:51;9.60;99.90
4183;DHT22;2105;52.300;9.182;2023-04-01T01:33:35;9.60;99.90
4183;DHT22;2105;52.300;9.182;2023-04-01T01:36:10;9.60;99.90
4183;DHT22;2105;52.300;9.182;2023-04-01T01:38:39;9.60;99.90
4183;DHT22;2105;52.300;9.182;2023-04-01T01:41:07;9.60;99.90
4183;DHT22;2105;52.300;9.182;2023-04-01T01:43:38;9.60;99.90
4183;DHT22;2105;52.300;9.182;2023-04-01T01:46:11;9.60;99.90
4183;DHT22;2105;52.300;9.182;2023-04-01T01:48:39;9.60;99.90
4183;DHT22;2105;52.300;9.182;2023-04-01T01:51:06;9.60;99.90
4183;DHT22;2105;52.300;9.182;2023-04-01T01:53:35;9.60;99.90
4183;DHT22;2105;52.300;9.182;2023-04-01T01:56:02;9.60;99.90
4183;DHT22;2105;52.300;9.182;2023-04-01T01:58:31;9.60;99.90
4183;DHT22;2105;52.300;9.182;2023-04-01T02:01:02;9.60;99.90
4183;DHT22;2105;52.300;9.182;2023-04-01T02:03:31;9.60;99.90
4183;DHT22;2105;52.300;9.182;2023-04-01T02:06:00;9.50;99.90
4183;DHT22;2105;52.300;9.182;2023-04-01T02:08:31;9.50;99.90
4183;DHT22;2105;52.300;9.182;2023-04-01T02:11:04;9.50;99.90
4183;DHT22;2105;52.300;9.182;2023-04-01T02:13:36;9.50;99.90
4183;DHT22;2105;52.300;9.182;2023-04-01T02:16:07;9.50;99.90
4183;DHT22;2105;52.300;9.182;2023-04-01T02:18:36;9.50;99.90
4183;DHT22;2105;52.300;9.182;2023-04-01T02:21:05;9.50;99.90
4183;DHT22;2105;52.300;9.182;2023-04-01T02:23:33;9.50;99.90
4183;DHT22;2105;52.300;9.182;2023-04-01T02:26:04;9.50;99.90
4183;DHT22;2105;52.300;9.182;2023-04-01T02:28:33;9.50;99.90
4183;DHT22;2105;52.300;9.182;2023-04-01T02:31:01;9.50;99.90
4183;DHT22;2105;52.300;9.182;2023-04-01T02:33:28;9.50;99.90
4183;DHT22;2105;52.300;9.182;2023-04-01T02:35:57;9.50;99.90
4183;DHT22;2105;52.300;9.182;2023-04-01T02:38:24;9.50;99.90
4183;DHT22;2105;52.300;9.182;2023-04-01T02:40:56;9.50;99.90
4183;DHT22;2105;52.300;9.182;2023-04-01T02:43:24;9.50;99.90
4183;DHT22;2105;52.300;9.182;2023-04-01T02:45:51;9.50;99.90
4183;DHT22;2105;52.300;9.182;2023-04-01T02:48:17;9.50;99.90
4183;DHT22;2105;52.300;9.182;2023-04-01T02:50:44;9.50;99.90
4183;DHT22;2105;52.300;9.182;2023-04-01T02:53:11;9.50;99.90
4183;DHT22;2105;52.300;9.182;2023-04-01T02:55:38;9.50;99.90
4183;DHT22;2105;52.300;9.182;2023-04-01T02:58:05;9.50;99.90
4183;DHT22;2105;52.300;9.182;2023-04-01T03:00:33;9.50;99.90
4183;DHT22;2105;52.300;9.182;2023-04-01T03:02:59;9.50;99.90
4183;DHT22;2105;52.300;9.182;2023-04-01T03:05:27;9.40;99.90
4183;DHT22;2105;52.300;9.182;2023-04-01T03:07:55;9.40;99.90
4183;DHT22;2105;52.300;9.182;2023-04-01T03:10:22;9.40;99.90
4183;DHT22;2105;52.300;9.182;2023-04-01T03:12:48;9.40;99.90
4183;DHT22;2105;52.300;9.182;2023-04-01T03:15:15;9.40;99.90
4183;DHT22;2105;52.300;9.182;2023-04-01T03:17:43;9.40;99.90
4183;DHT22;2105;52.300;9.182;2023-04-01T03:20:12;9.40;99.90
4183;DHT22;2105;52.300;9.182;2023-04-01T03:22:40;9.40;99.90
4183;DHT22;2105;52.300;9.182;2023-04-01T03:25:07;9.40;99.90
4183;DHT22;2105;52.300;9.182;2023-04-01T03:27:34;9.40;99.90
4183;DHT22;2105;52.300;9.182;2023-04-01T03:30:01;9.40;99.90
4183;DHT22;2105;52.300;9.182;2023-04-01T03:32:28;9.40;99.90
4183;DHT22;2105;52.300;9.182;2023-04-01T03:34:56;9.40;99.90
4183;DHT22;2105;52.300;9.182;2023-04-01T03:37:23;9.30;99.90
4183;DHT22;2105;52.300;9.182;2023-04-01T03:39:50;9.40;99.90
4183;DHT22;2105;52.300;9.182;2023-04-01T03:42:16;9.30;99.90
4183;DHT22;2105;52.300;9.182;2023-04-01T03:44:43;9.30;99.90
4183;DHT22;2105;52.300;9.182;2023-04-01T03:47:10;9.30;99.90
4183;DHT22;2105;52.300;9.182;2023-04-01T03:49:36;9.30;99.90
4183;DHT22;2105;52.300;9.182;2023-04-01T03:52:09;9.30;99.90
4183;DHT22;2105;52.300;9.182;2023-04-01T03:54:36;9.30;99.90
4183;DHT22;2105;52.300;9.182;2023-04-01T03:57:03;9.30;99.90
4183;DHT22;2105;52.300;9.182;2023-04-01T03:59:29;9.30;99.90
4183;DHT22;2105;52.300;9.182;2023-04-01T04:01:56;9.30;99.90
4183;DHT22;2105;52.300;9.182;2023-04-01T04:04:23;9.30;99.90
4183;DHT22;2105;52.300;9.182;2023-04-01T04:06:50;9.30;99.90
4183;DHT22;2105;52.300;9.182;2023-04-01T04:09:18;9.30;99.90
4183;DHT22;2105;52.300;9.182;2023-04-01T04:11:45;9.30;99.90
4183;DHT22;2105;52.300;9.182;2023-04-01T04:14:11;9.30;99.90
4183;DHT22;2105;52.300;9.182;2023-04-01T04:16:38;9.30;99.90
4183;DHT22;2105;52.300;9.182;2023-04-01T04:19:05;9.30;99.90
4183;DHT22;2105;52.300;9.182;2023-04-01T04:21:32;9.30;99.90
4183;DHT22;2105;52.300;9.182;2023-04-01T04:23:59;9.30;99.90
4183;DHT22;2105;52.300;9.182;2023-04-01T04:26:27;9.30;99.90
4183;DHT22;2105;52.300;9.182;2023-04-01T04:28:55;9.30;99.90
4183;DHT22;2105;52.300;9.182;2023-04-01T04:31:23;9.30;99.90
4183;DHT22;2105;52.300;9.182;2023-04-01T04:33:50;9.30;99.90
4183;DHT22;2105;52.300;9.182;2023-04-01T04:36:17;9.30;99.90
4183;DHT22;2105;52.300;9.182;2023-04-01T04:38:44;9.20;99.90
4183;DHT22;2105;52.300;9.182;2023-04-01T04:41:12;9.20;99.90
4183;DHT22;2105;52.300;9.182;2023-04-01T04:43:40;9.20;99.90
4183;DHT22;2105;52.300;9.182;2023-04-01T04:46:08;9.20;99.90
4183;DHT22;2105;52.300;9.182;2023-04-01T04:48:35;9.20;99.90
4183;DHT22;2105;52.300;9.182;2023-04-01T04:51:02;9.20;99.90
4183;DHT22;2105;52.300;9.182;2023-04-01T04:53:29;9.20;99.90
4183;DHT22;2105;52.300;9.182;2023-04-01T04:55:56;9.20;99.90
4183;DHT22;2105;52.300;9.182;2023-04-01T04:58:22;9.20;99.90
4183;DHT22;2105;52.300;9.182;2023-04-01T05:00:50;9.20;99.90
4183;DHT22;2105;52.300;9.182;2023-04-01T05:03:17;9.20;99.90
4183;DHT22;2105;52.300;9.182;2023-04-01T05:05:53;9.20;99.90
4183;DHT22;2105;52.300;9.182;2023-04-01T05:08:20;9.20;99.90
4183;DHT22;2105;52.300;9.182;2023-04-01T05:10:47;9.20;99.90
4183;DHT22;2105;52.300;9.182;2023-04-01T05:13:14;9.10;99.90
4183;DHT22;2105;52.300;9.182;2023-04-01T05:15:40;9.20;99.90
4183;DHT22;2105;52.300;9.182;2023-04-01T05:18:09;9.20;99.90
4183;DHT22;2105;52.300;9.182;2023-04-01T05:20:35;9.20;99.90
4183;DHT22;2105;52.300;9.182;2023-04-01T05:23:02;9.20;99.90
4183;DHT22;2105;52.300;9.182;2023-04-01T05:25:29;9.20;99.90
4183;DHT22;2105;52.300;9.182;2023-04-01T05:27:56;9.20;99.90
4183;DHT22;2105;52.300;9.182;2023-04-01T05:30:22;9.20;99.90
4183;DHT22;2105;52.300;9.182;2023-04-01T05:32:49;9.30;99.90
4183;DHT22;2105;52.300;9.182;2023-04-01T05:35:17;9.30;99.90
4183;DHT22;2105;52.300;9.182;2023-04-01T05:37:44;9.30;99.90
4183;DHT22;2105;52.300;9.182;2023-04-01T05:40:11;9.30;99.90
4183;DHT22;2105;52.300;9.182;2023-04-01T05:42:37;9.30;99.90
4183;DHT22;2105;52.300;9.182;2023-04-01T05:45:05;9.30;99.90
4183;DHT22;2105;52.300;9.182;2023-04-01T05:47:32;9.30;99.90
4183;DHT22;2105;52.300;9.182;2023-04-01T05:49:59;9.30;99.90
4183;DHT22;2105;52.300;9.182;2023-04-01T05:52:27;9.30;99.90
4183;DHT22;2105;52.300;9.182;2023-04-01T05:54:54;9.30;99.90
4183;DHT22;2105;52.300;9.182;2023-04-01T05:57:20;9.40;99.90
4183;DHT22;2105;52.300;9.182;2023-04-01T05:59:47;9.40;99.90
4183;DHT22;2105;52.300;9.182;2023-04-01T06:02:16;9.40;99.90
4183;DHT22;2105;52.300;9.182;2023-04-01T06:04:43;9.40;99.90
4183;DHT22;2105;52.300;9.182;2023-04-01T06:07:11;9.40;99.90
4183;DHT22;2105;52.300;9.182;2023-04-01T06:09:40;9.40;99.90
4183;DHT22;2105;52.300;9.182;2023-04-01T06:12:24;9.50;99.90
4183;DHT22;2105;52.300;9.182;2023-04-01T06:15:03;9.50;99.90
4183;DHT22;2105;52.300;9.182;2023-04-01T06:17:44;9.50;99.90
4183;DHT22;2105;52.300;9.182;2023-04-01T06:20:20;9.50;99.90
4183;DHT22;2105;52.300;9.182;2023-04-01T06:23:10;9.50;99.90
4183;DHT22;2105;52.300;9.182;2023-04-01T06:25:54;9.50;99.90
4183;DHT22;2105;52.300;9.182;2023-04-01T06:32:02;9.50;99.90
4183;DHT22;2105;52.300;9.182;2023-04-01T06:34:47;9.50;99.90
4183;DHT22;2105;52.300;9.182;2023-04-01T06:40:38;9.60;99.90
4183;DHT22;2105;52.300;9.182;2023-04-01T06:43:15;9.60;99.90
4183;DHT22;2105;52.300;9.182;2023-04-01T06:45:50;9.70;99.90
4183;DHT22;2105;52.300;9.182;2023-04-01T06:48:29;9.70;99.90
4183;DHT22;2105;52.300;9.182;2023-04-01T06:51:07;9.70;99.90
4183;DHT22;2105;52.300;9.182;2023-04-01T06:53:44;9.70;99.90
4183;DHT22;2105;52.300;9.182;2023-04-01T06:56:17;9.70;99.90
4183;DHT22;2105;52.300;9.182;2023-04-01T06:58:48;9.70;99.90
4183;DHT22;2105;52.300;9.182;2023-04-01T07:01:19;9.70;99.90
4183;DHT22;2105;52.300;9.182;2023-04-01T07:03:49;9.70;99.90
4183;DHT22;2105;52.300;9.182;2023-04-01T07:06:25;9.80;99.90
4183;DHT22;2105;52.300;9.182;2023-04-01T07:08:54;9.70;99.90
4183;DHT22;2105;52.300;9.182;2023-04-01T07:11:25;9.80;99.90
4183;DHT22;2105;52.300;9.182;2023-04-01T07:13:55;9.70;99.90
4183;DHT22;2105;52.300;9.182;2023-04-01T07:16:27;9.70;99.90
4183;DHT22;2105;52.300;9.182;2023-04-01T07:18:59;9.70;99.90
4183;DHT22;2105;52.300;9.182;2023-04-01T07:21:30;9.80;99.90
4183;DHT22;2105;52.300;9.182;2023-04-01T07:24:04;9.70;99.90
4183;DHT22;2105;52.300;9.182;2023-04-01T07:26:31;9.70;99.90
4183;DHT22;2105;52.300;9.182;2023-04-01T07:28:59;9.70;99.90
4183;DHT22;2105;52.300;9.182;2023-04-01T07:31:39;9.70;99.90
4183;DHT22;2105;52.300;9.182;2023-04-01T07:34:14;9.70;99.90
4183;DHT22;2105;52.300;9.182;2023-04-01T07:36:46;9.80;99.90
4183;DHT22;2105;52.300;9.182;2023-04-01T07:39:28;9.80;99.90
4183;DHT22;2105;52.300;9.182;2023-04-01T07:42:01;9.80;99.90
4183;DHT22;2105;52.300;9.182;2023-04-01T07:44:39;9.90;99.90
4183;DHT22;2105;52.300;9.182;2023-04-01T07:47:23;9.90;99.90
4183;DHT22;2105;52.300;9.182;2023-04-01T07:50:02;10.00;99.90
4183;DHT22;2105;52.300;9.182;2023-04-01T07:52:35;10.10;99.90
4183;DHT22;2105;52.300;9.182;2023-04-01T07:55:09;10.10;99.90
4183;DHT22;2105;52.300;9.182;2023-04-01T07:57:43;10.10;99.90
4183;DHT22;2105;52.300;9.182;2023-04-01T08:00:16;10.20;99.90
4183;DHT22;2105;52.300;9.182;2023-04-01T08:03:03;10.20;99.90
4183;DHT22;2105;52.300;9.182;2023-04-01T08:05:40;10.20;99.90
4183;DHT22;2105;52.300;9.182;2023-04-01T08:08:15;10.30;99.90
4183;DHT22;2105;52.300;9.182;2023-04-01T08:10:48;10.40;99.90
4183;DHT22;2105;52.300;9.182;2023-04-01T08:13:24;10.40;99.90
4183;DHT22;2105;52.300;9.182;2023-04-01T08:15:59;10.50;99.90
4183;DHT22;2105;52.300;9.182;2023-04-01T08:18:36;10.50;99.90
4183;DHT22;2105;52.300;9.182;2023-04-01T08:21:09;10.60;99.90
4183;DHT22;2105;52.300;9.182;2023-04-01T08:23:38;10.70;99.90
4183;DHT22;2105;52.300;9.182;2023-04-01T08:26:13;10.70;99.90
4183;DHT22;2105;52.300;9.182;2023-04-01T08:28:45;10.70;99.90
4183;DHT22;2105;52.300;9.182;2023-04-01T08:31:24;10.70;99.90
4183;DHT22;2105;52.300;9.182;2023-04-01T08:33:54;10.80;99.90
4183;DHT22;2105;52.300;9.182;2023-04-01T08:36:24;10.90;99.90
4183;DHT22;2105;52.300;9.182;2023-04-01T08:38:57;11.00;99.90
4183;DHT22;2105;52.300;9.182;2023-04-01T08:41:48;11.10;99.90
4183;DHT22;2105;52.300;9.182;2023-04-01T08:44:37;11.10;99.90
4183;DHT22;2105;52.300;9.182;2023-04-01T08:47:20;11.00;99.90
4183;DHT22;2105;52.300;9.182;2023-04-01T08:50:12;11.00;99.90
4183;DHT22;2105;52.300;9.182;2023-04-01T08:52:48;11.00;99.90
4183;DHT22;2105;52.300;9.182;2023-04-01T08:55:35;11.10;99.90
4183;DHT22;2105;52.300;9.182;2023-04-01T08:58:21;11.10;99.90
4183;DHT22;2105;52.300;9.182;2023-04-01T09:00:54;11.20;99.90
4183;DHT22;2105;52.300;9.182;2023-04-01T09:03:46;11.10;99.90
4183;DHT22;2105;52.300;9.182;2023-04-01T09:06:26;11.10;99.90
4183;DHT22;2105;52.300;9.182;2023-04-01T09:12:23;10.90;99.90
4183;DHT22;2105;52.300;9.182;2023-04-01T09:15:06;10.90;99.90
4183;DHT22;2105;52.300;9.182;2023-04-01T09:18:01;10.90;99.90
4183;DHT22;2105;52.300;9.182;2023-04-01T09:20:42;10.80;99.90
4183;DHT22;2105;52.300;9.182;2023-04-01T09:23:36;10.90;99.90
4183;DHT22;2105;52.300;9.182;2023-04-01T09:26:17;10.90;99.90
4183;DHT22;2105;52.300;9.182;2023-04-01T09:28:53;10.90;99.90
4183;DHT22;2105;52.300;9.182;2023-04-01T09:34:44;10.90;99.90
4183;DHT22;2105;52.300;9.182;2023-04-01T09:37:21;10.80;99.90
4183;DHT22;2105;52.300;9.182;2023-04-01T09:40:16;10.90;99.90
4183;DHT22;2105;52.300;9.182;2023-04-01T09:43:01;11.00;99.90
4183;DHT22;2105;52.300;9.182;2023-04-01T09:45:41;10.90;99.90
4183;DHT22;2105;52.300;9.182;2023-04-01T09:48:21;10.90;99.90
4183;DHT22;2105;52.300;9.182;2023-04-01T09:50:57;11.00;99.90
4183;DHT22;2105;52.300;9.182;2023-04-01T09:53:52;10.90;99.90
4183;DHT22;2105;52.300;9.182;2023-04-01T09:56:52;10.90;99.90
4183;DHT22;2105;52.300;9.182;2023-04-01T09:59:57;11.00;99.90
4183;DHT22;2105;52.300;9.182;2023-04-01T10:12:29;11.20;99.90
4183;DHT22;2105;52.300;9.182;2023-04-01T10:15:41;11.40;99.90
4183;DHT22;2105;52.300;9.182;2023-04-01T10:18:41;11.70;99.90
4183;DHT22;2105;52.300;9.182;2023-04-01T10:21:42;11.80;99.90
4183;DHT22;2105;52.300;9.182;2023-04-01T10:27:31;11.80;99.90
4183;DHT22;2105;52.300;9.182;2023-04-01T10:33:29;11.60;99.90
4183;DHT22;2105;52.300;9.182;2023-04-01T10:39:27;11.60;99.90
4183;DHT22;2105;52.300;9.182;2023-04-01T10:51:10;11.30;99.90
4183;DHT22;2105;52.300;9.182;2023-04-01T10:53:45;11.20;99.90
4183;DHT22;2105;52.300;9.182;2023-04-01T10:56:32;11.20;99.90
4183;DHT22;2105;52.300;9.182;2023-04-01T10:59:28;11.30;99.90
4183;DHT22;2105;52.300;9.182;2023-04-01T11:02:32;11.40;99.90
4183;DHT22;2105;52.300;9.182;2023-04-01T11:05:41;11.60;99.90
4183;DHT22;2105;52.300;9.182;2023-04-01T11:15:18;12.20;99.90
4183;DHT22;2105;52.300;9.182;2023-04-01T11:18:24;12.40;99.90
4183;DHT22;2105;52.300;9.182;2023-04-01T11:21:25;12.40;99.90
4183;DHT22;2105;52.300;9.182;2023-04-01T11:24:35;12.10;88.30
4183;DHT22;2105;52.300;9.182;2023-04-01T11:27:18;11.90;1.00
4183;DHT22;2105;52.300;9.182;2023-04-01T11:30:04;12.00;1.00
4183;DHT22;2105;52.300;9.182;2023-04-01T11:32:43;12.00;99.90
4183;DHT22;2105;52.300;9.182;2023-04-01T11:38:19;12.40;99.90
4183;DHT22;2105;52.300;9.182;2023-04-01T11:40:54;12.40;99.90
4183;DHT22;2105;52.300;9.182;2023-04-01T11:43:31;12.40;99.90
4183;DHT22;2105;52.300;9.182;2023-04-01T11:46:05;12.40;99.90
4183;DHT22;2105;52.300;9.182;2023-04-01T11:48:40;12.10;99.90
4183;DHT22;2105;52.300;9.182;2023-04-01T11:51:25;11.90;99.90
4183;DHT22;2105;52.300;9.182;2023-04-01T11:54:03;11.80;99.90
4183;DHT22;2105;52.300;9.182;2023-04-01T11:56:44;11.80;99.90
4183;DHT22;2105;52.300;9.182;2023-04-01T11:59:32;11.80;99.90
4183;DHT22;2105;52.300;9.182;2023-04-01T12:02:11;11.80;99.90
4183;DHT22;2105;52.300;9.182;2023-04-01T12:05:08;11.80;99.90
4183;DHT22;2105;52.300;9.182;2023-04-01T12:07:53;12.00;99.90
4183;DHT22;2105;52.300;9.182;2023-04-01T12:10:26;12.20;99.90
4183;DHT22;2105;52.300;9.182;2023-04-01T12:13:01;12.10;99.90
4183;DHT22;2105;52.300;9.182;2023-04-01T12:15:36;12.30;99.90
4183;DHT22;2105;52.300;9.182;2023-04-01T12:18:16;12.40;99.90
4183;DHT22;2105;52.300;9.182;2023-04-01T12:20:50;12.40;99.90
4183;DHT22;2105;52.300;9.182;2023-04-01T12:23:50;12.50;99.90
4183;DHT22;2105;52.300;9.182;2023-04-01T12:26:43;12.60;99.90
4183;DHT22;2105;52.300;9.182;2023-04-01T12:29:35;12.70;99.90
4183;DHT22;2105;52.300;9.182;2023-04-01T12:32:12;12.80;99.90
4183;DHT22;2105;52.300;9.182;2023-04-01T12:37:44;12.70;99.90
4183;DHT22;2105;52.300;9.182;2023-04-01T12:40:31;12.70;99.90
4183;DHT22;2105;52.300;9.182;2023-04-01T12:43:17;12.70;99.90
4183;DHT22;2105;52.300;9.182;2023-04-01T12:45:54;12.60;99.90
4183;DHT22;2105;52.300;9.182;2023-04-01T12:51:30;12.40;99.90
4183;DHT22;2105;52.300;9.182;2023-04-01T12:57:23;12.20;99.90
4183;DHT22;2105;52.300;9.182;2023-04-01T13:00:08;12.30;99.90
4183;DHT22;2105;52.300;9.182;2023-04-01T13:02:50;12.20;99.90
4183;DHT22;2105;52.300;9.182;2023-04-01T13:05:31;12.20;99.90
4183;DHT22;2105;52.300;9.182;2023-04-01T13:08:27;12.30;99.90
4183;DHT22;2105;52.300;9.182;2023-04-01T13:11:07;12.40;99.90
4183;DHT22;2105;52.300;9.182;2023-04-01T13:16:31;12.50;99.90
4183;DHT22;2105;52.300;9.182;2023-04-01T13:19:05;12.50;99.90
4183;DHT22;2105;52.300;9.182;2023-04-01T13:21:48;12.50;99.90
4183;DHT22;2105;52.300;9.182;2023-04-01T13:24:29;12.40;99.90
4183;DHT22;2105;52.300;9.182;2023-04-01T13:27:01;12.40;99.90
4183;DHT22;2105;52.300;9.182;2023-04-01T13:29:34;12.40;99.90
4183;DHT22;2105;52.300;9.182;2023-04-01T13:32:10;12.40;99.90
4183;DHT22;2105;52.300;9.182;2023-04-01T13:34:47;12.40;99.90
4183;DHT22;2105;52.300;9.182;2023-04-01T13:37:29;12.40;99.90
4183;DHT22;2105;52.300;9.182;2023-04-01T13:40:36;12.30;99.90
4183;DHT22;2105;52.300;9.182;2023-04-01T13:43:12;12.20;99.90
4183;DHT22;2105;52.300;9.182;2023-04-01T13:46:05;12.20;99.90
4183;DHT22;2105;52.300;9.182;2023-04-01T13:48:54;12.20;99.90
4183;DHT22;2105;52.300;9.182;2023-04-01T13:54:53;12.20;99.90
4183;DHT22;2105;52.300;9.182;2023-04-01T13:57:38;12.30;99.90
4183;DHT22;2105;52.300;9.182;2023-04-01T14:00:35;12.40;99.90
4183;DHT22;2105;52.300;9.182;2023-04-01T14:03:28;12.40;99.90
4183;DHT22;2105;52.300;9.182;2023-04-01T14:06:06;12.50;99.90
4183;DHT22;2105;52.300;9.182;2023-04-01T14:08:48;12.60;99.90
4183;DHT22;2105;52.300;9.182;2023-04-01T14:11:20;12.60;99.90
4183;DHT22;2105;52.300;9.182;2023-04-01T14:14:01;12.60;99.90
4183;DHT22;2105;52.300;9.182;2023-04-01T14:16:48;12.50;99.90
4183;DHT22;2105;52.300;9.182;2023-04-01T14:19:28;12.60;99.90
4183;DHT22;2105;52.300;9.182;2023-04-01T14:22:03;12.60;99.90
4183;DHT22;2105;52.300;9.182;2023-04-01T14:24:41;12.70;99.90
4183;DHT22;2105;52.300;9.182;2023-04-01T14:27:38;12.70;99.90
4183;DHT22;2105;52.300;9.182;2023-04-01T14:30:29;12.70;99.90
4183;DHT22;2105;52.300;9.182;2023-04-01T14:33:03;12.50;99.90
4183;DHT22;2105;52.300;9.182;2023-04-01T14:35:37;12.40;99.90
4183;DHT22;2105;52.300;9.182;2023-04-01T14:38:27;12.20;99.90
4183;DHT22;2105;52.300;9.182;2023-04-01T14:40:56;12.00;99.90
4183;DHT22;2105;52.300;9.182;2023-04-01T14:43:56;11.90;99.90
4183;DHT22;2105;52.300;9.182;2023-04-01T14:49:46;11.80;99.90
4183;DHT22;2105;52.300;9.182;2023-04-01T14:52:16;12.00;99.90
4183;DHT22;2105;52.300;9.182;2023-04-01T14:54:49;12.00;99.90
4183;DHT22;2105;52.300;9.182;2023-04-01T14:57:23;11.90;99.90
4183;DHT22;2105;52.300;9.182;2023-04-01T14:59:53;11.60;99.90
4183;DHT22;2105;52.300;9.182;2023-04-01T15:02:46;11.40;99.90
4183;DHT22;2105;52.300;9.182;2023-04-01T15:05:30;11.20;99.90
4183;DHT22;2105;52.300;9.182;2023-04-01T15:08:18;10.90;99.90
4183;DHT22;2105;52.300;9.182;2023-04-01T15:11:16;10.70;99.90
4183;DHT22;2105;52.300;9.182;2023-04-01T15:14:00;10.60;99.90
4183;DHT22;2105;52.300;9.182;2023-04-01T15:16:35;10.40;99.90
4183;DHT22;2105;52.300;9.182;2023-04-01T15:19:14;10.20;99.90
4183;DHT22;2105;52.300;9.182;2023-04-01T15:22:00;10.00;99.90
4183;DHT22;2105;52.300;9.182;2023-04-01T15:24:43;9.90;99.90
4183;DHT22;2105;52.300;9.182;2023-04-01T15:27:27;9.80;99.90
4183;DHT22;2105;52.300;9.182;2023-04-01T15:30:14;9.80;99.90
4183;DHT22;2105;52.300;9.182;2023-04-01T15:32:53;9.80;99.90
4183;DHT22;2105;52.300;9.182;2023-04-01T15:35:34;9.70;99.90
4183;DHT22;2105;52.300;9.182;2023-04-01T15:38:11;9.70;99.90
4183;DHT22;2105;52.300;9.182;2023-04-01T15:40:47;9.70;99.90
4183;DHT22;2105;52.300;9.182;2023-04-01T15:43:26;9.70;99.90
4183;DHT22;2105;52.300;9.182;2023-04-01T15:45:58;9.60;99.90
4183;DHT22;2105;52.300;9.182;2023-04-01T15:48:46;9.60;99.90
4183;DHT22;2105;52.300;9.182;2023-04-01T15:51:22;9.60;99.90
4183;DHT22;2105;52.300;9.182;2023-04-01T15:56:52;9.50;99.90
4183;DHT22;2105;52.300;9.182;2023-04-01T15:59:33;9.40;99.90
4183;DHT22;2105;52.300;9.182;2023-04-01T16:02:14;9.40;99.90
4183;DHT22;2105;52.300;9.182;2023-04-01T16:04:50;9.30;99.90
4183;DHT22;2105;52.300;9.182;2023-04-01T16:07:43;9.20;99.90
4183;DHT22;2105;52.300;9.182;2023-04-01T16:10:23;9.20;99.90
4183;DHT22;2105;52.300;9.182;2023-04-01T16:13:01;9.20;99.90
4183;DHT22;2105;52.300;9.182;2023-04-01T16:15:37;9.20;99.90
4183;DHT22;2105;52.300;9.182;2023-04-01T16:18:25;9.20;99.90
4183;DHT22;2105;52.300;9.182;2023-04-01T16:20:56;9.10;99.90
4183;DHT22;2105;52.300;9.182;2023-04-01T16:23:30;9.00;99.90
4183;DHT22;2105;52.300;9.182;2023-04-01T16:26:07;9.00;99.90
4183;DHT22;2105;52.300;9.182;2023-04-01T16:28:40;8.90;99.90
4183;DHT22;2105;52.300;9.182;2023-04-01T16:31:13;8.90;99.90
4183;DHT22;2105;52.300;9.182;2023-04-01T16:33:47;8.90;99.90
4183;DHT22;2105;52.300;9.182;2023-04-01T16:36:24;8.80;99.90
4183;DHT22;2105;52.300;9.182;2023-04-01T16:39:02;8.80;99.90
4183;DHT22;2105;52.300;9.182;2023-04-01T16:41:36;8.80;99.90
4183;DHT22;2105;52.300;9.182;2023-04-01T16:44:13;8.70;99.90
4183;DHT22;2105;52.300;9.182;2023-04-01T16:46:44;8.60;99.90
4183;DHT22;2105;52.300;9.182;2023-04-01T16:49:30;8.50;99.90
4183;DHT22;2105;52.300;9.182;2023-04-01T16:52:12;8.50;99.90
4183;DHT22;2105;52.300;9.182;2023-04-01T16:54:44;8.50;99.90
4183;DHT22;2105;52.300;9.182;2023-04-01T16:57:18;8.50;99.90
4183;DHT22;2105;52.300;9.182;2023-04-01T16:59:50;8.40;99.90
4183;DHT22;2105;52.300;9.182;2023-04-01T17:02:24;8.30;99.90
4183;DHT22;2105;52.300;9.182;2023-04-01T17:04:57;8.30;99.90
4183;DHT22;2105;52.300;9.182;2023-04-01T17:07:35;8.30;99.90
4183;DHT22;2105;52.300;9.182;2023-04-01T17:10:29;8.30;99.90
4183;DHT22;2105;52.300;9.182;2023-04-01T17:13:26;8.20;99.90
4183;DHT22;2105;52.300;9.182;2023-04-01T17:16:02;8.20;99.90
4183;DHT22;2105;52.300;9.182;2023-04-01T17:18:37;8.20;99.90
4183;DHT22;2105;52.300;9.182;2023-04-01T17:21:09;8.20;99.90
4183;DHT22;2105;52.300;9.182;2023-04-01T17:23:42;8.20;99.90
4183;DHT22;2105;52.300;9.182;2023-04-01T17:26:28;8.10;99.90
4183;DHT22;2105;52.300;9.182;2023-04-01T17:29:05;8.10;99.90
4183;DHT22;2105;52.300;9.182;2023-04-01T17:31:45;8.00;99.90
4183;DHT22;2105;52.300;9.182;2023-04-01T17:34:35;7.90;99.90
4183;DHT22;2105;52.300;9.182;2023-04-01T17:37:22;7.80;99.90
4183;DHT22;2105;52.300;9.182;2023-04-01T17:40:08;7.70;99.90
4183;DHT22;2105;52.300;9.182;2023-04-01T17:42:41;7.70;99.90
4183;DHT22;2105;52.300;9.182;2023-04-01T17:45:21;7.70;99.90
4183;DHT22;2105;52.300;9.182;2023-04-01T17:47:55;7.70;99.90
4183;DHT22;2105;52.300;9.182;2023-04-01T17:50:30;7.70;99.90
4183;DHT22;2105;52.300;9.182;2023-04-01T17:53:17;7.70;99.90
4183;DHT22;2105;52.300;9.182;2023-04-01T17:55:52;7.50;99.90
4183;DHT22;2105;52.300;9.182;2023-04-01T17:58:28;7.40;99.90
4183;DHT22;2105;52.300;9.182;2023-04-01T18:01:06;7.40;99.90
4183;DHT22;2105;52.300;9.182;2023-04-01T18:03:54;7.30;99.90
4183;DHT22;2105;52.300;9.182;2023-04-01T18:06:31;7.30;99.90
4183;DHT22;2105;52.300;9.182;2023-04-01T18:09:08;7.20;99.90
4183;DHT22;2105;52.300;9.182;2023-04-01T18:11:44;7.10;99.90
4183;DHT22;2105;52.300;9.182;2023-04-01T18:14:36;7.00;99.90
4183;DHT22;2105;52.300;9.182;2023-04-01T18:17:18;7.10;99.90
4183;DHT22;2105;52.300;9.182;2023-04-01T18:19:59;7.10;99.90
4183;DHT22;2105;52.300;9.182;2023-04-01T18:22:33;7.10;99.90
4183;DHT22;2105;52.300;9.182;2023-04-01T18:25:14;7.00;99.90